createdAt,value
2023-02-25T00:00:56.232Z,95.12
2023-02-25T00:02:03.716Z,94.93
2023-02-25T00:02:56.269Z,95.03
2023-02-25T00:03:56.167Z,95.03
2023-02-25T00:04:56.176Z,95.31
2023-02-25T00:05:56.159Z,95.69
2023-02-25T00:06:59.257Z,95.50
2023-02-25T00:08:03.301Z,95.69
2023-02-25T00:10:00.340Z,96.36
2023-02-25T00:11:00.319Z,96.45
2023-02-25T00:13:17.452Z,96.55
2023-02-25T00:14:04.268Z,96.26
2023-02-25T00:15:04.189Z,96.92
2023-02-25T00:16:04.538Z,96.92
2023-02-25T00:17:04.290Z,96.83
2023-02-25T00:18:04.137Z,96.73
2023-02-25T00:19:04.125Z,96.64
2023-02-25T00:20:04.113Z,96.73
2023-02-25T00:21:04.129Z,96.73
2023-02-25T00:22:04.097Z,96.92
2023-02-25T00:23:04.124Z,96.92
2023-02-25T00:24:15.565Z,97.12
2023-02-25T00:25:04.092Z,96.83
2023-02-25T00:26:04.077Z,96.83
2023-02-25T00:27:04.078Z,96.92
2023-02-25T00:28:04.068Z,97.12
2023-02-25T00:29:04.044Z,97.40
2023-02-25T00:30:04.037Z,97.40
2023-02-25T00:31:04.156Z,96.92
2023-02-25T00:32:04.262Z,96.92
2023-02-25T00:33:04.028Z,97.59
2023-02-25T00:34:04.027Z,97.40
2023-02-25T00:35:04.020Z,97.02
2023-02-25T00:36:03.979Z,97.50
2023-02-25T00:37:03.981Z,97.02
2023-02-25T00:38:14.889Z,96.83
2023-02-25T00:39:03.976Z,96.36
2023-02-25T00:40:03.948Z,96.36
2023-02-25T00:41:03.936Z,95.88
2023-02-25T00:42:03.939Z,95.69
2023-02-25T00:43:03.929Z,95.41
2023-02-25T00:44:03.942Z,95.60
2023-02-25T00:45:03.901Z,94.93
2023-02-25T00:46:03.918Z,94.51
2023-02-25T00:47:03.898Z,94.13
2023-02-25T00:48:03.883Z,94.32
2023-02-25T00:49:03.867Z,94.89
2023-02-25T00:50:03.869Z,94.23
2023-02-25T00:51:03.860Z,94.32
2023-02-25T00:52:03.856Z,94.23
2023-02-25T00:53:03.836Z,94.32
2023-02-25T00:54:03.831Z,94.79
2023-02-25T00:55:03.823Z,94.98
2023-02-25T00:56:03.811Z,95.36
2023-02-25T00:57:03.824Z,95.17
2023-02-25T00:58:03.807Z,94.79
2023-02-25T00:59:03.786Z,95.17
2023-02-25T01:00:03.792Z,94.89
2023-02-25T01:01:03.795Z,95.45
2023-02-25T01:02:03.773Z,95.36
2023-02-25T01:03:03.811Z,95.17
2023-02-25T01:04:03.757Z,94.70
2023-02-25T01:05:03.733Z,94.89
2023-02-25T01:06:03.748Z,94.89
2023-02-25T01:07:03.904Z,94.89
2023-02-25T01:08:03.711Z,94.60
2023-02-25T01:09:03.724Z,95.45
2023-02-25T01:10:03.693Z,95.17
2023-02-25T01:11:03.674Z,95.17
2023-02-25T01:12:03.670Z,95.36
2023-02-25T01:13:03.662Z,95.17
2023-02-25T01:14:03.707Z,95.22
2023-02-25T01:15:03.680Z,94.60
2023-02-25T01:16:03.713Z,94.93
2023-02-25T01:17:03.627Z,94.74
2023-02-25T01:18:03.620Z,94.93
2023-02-25T01:19:03.622Z,94.56
2023-02-25T01:20:04.205Z,94.93
2023-02-25T01:21:03.617Z,94.74
2023-02-25T01:22:03.602Z,95.03
2023-02-25T01:23:03.594Z,95.03
2023-02-25T01:24:03.571Z,94.84
2023-02-25T01:25:03.556Z,95.12
2023-02-25T01:26:03.586Z,95.41
2023-02-25T01:27:03.556Z,94.93
2023-02-25T01:28:03.547Z,94.84
2023-02-25T01:29:03.523Z,94.74
2023-02-25T01:30:03.533Z,95.41
2023-02-25T01:31:03.649Z,95.12
2023-02-25T01:32:03.835Z,95.41
2023-02-25T01:33:03.549Z,94.74
2023-02-25T01:34:03.490Z,94.93
2023-02-25T01:35:03.497Z,94.65
2023-02-25T01:36:03.484Z,94.93
2023-02-25T01:37:03.455Z,94.74
2023-02-25T01:38:03.485Z,94.65
2023-02-25T01:39:03.446Z,94.93
2023-02-25T01:40:03.450Z,95.41
2023-02-25T01:41:03.460Z,95.22
2023-02-25T01:42:03.434Z,95.22
2023-02-25T01:43:03.423Z,95.69
2023-02-25T01:44:03.413Z,94.93
2023-02-25T01:45:03.389Z,94.46
2023-02-25T01:46:03.416Z,94.56
2023-02-25T01:47:03.466Z,94.56
2023-02-25T01:48:03.396Z,95.03
2023-02-25T01:49:03.379Z,94.93
2023-02-25T01:50:03.371Z,94.65
2023-02-25T01:51:03.342Z,94.46
2023-02-25T01:52:03.348Z,94.27
2023-02-25T01:53:03.328Z,94.18
2023-02-25T01:54:03.337Z,94.74
2023-02-25T01:55:03.319Z,94.84
2023-02-25T01:56:03.323Z,94.56
2023-02-25T01:57:03.331Z,95.69
2023-02-25T01:58:03.354Z,95.03
2023-02-25T01:59:03.282Z,94.74
2023-02-25T02:00:03.278Z,94.93
2023-02-25T02:01:03.283Z,94.74
2023-02-25T02:02:03.317Z,94.37
2023-02-25T02:03:03.243Z,94.46
2023-02-25T02:04:03.236Z,94.65
2023-02-25T02:05:03.225Z,94.65
2023-02-25T02:06:03.224Z,94.65
2023-02-25T02:07:03.222Z,94.37
2023-02-25T02:08:03.218Z,94.74
2023-02-25T02:09:03.210Z,94.65
2023-02-25T02:10:03.201Z,94.56
2023-02-25T02:11:03.218Z,94.37
2023-02-25T02:12:03.180Z,94.46
2023-02-25T02:13:03.155Z,94.56
2023-02-25T02:14:03.174Z,94.84
2023-02-25T02:15:03.202Z,94.46
2023-02-25T02:16:03.179Z,94.84
2023-02-25T02:17:03.124Z,95.03
2023-02-25T02:18:03.130Z,94.56
2023-02-25T02:19:03.107Z,94.37
2023-02-25T02:20:03.107Z,94.08
2023-02-25T02:21:03.096Z,94.37
2023-02-25T02:22:03.092Z,93.80
2023-02-25T02:23:03.090Z,93.70
2023-02-25T02:24:03.072Z,93.99
2023-02-25T02:25:03.067Z,93.51
2023-02-25T02:26:03.054Z,93.89
2023-02-25T02:27:03.049Z,94.08
2023-02-25T02:28:03.077Z,93.41
2023-02-25T02:29:03.026Z,93.04
2023-02-25T02:30:03.041Z,93.04
2023-02-25T02:31:03.047Z,93.23
2023-02-25T02:32:03.156Z,93.04
2023-02-25T02:33:02.996Z,93.04
2023-02-25T02:34:03.007Z,93.23
2023-02-25T02:35:03.004Z,93.04
2023-02-25T02:36:03.003Z,93.04
2023-02-25T02:37:03.011Z,92.85
2023-02-25T02:38:02.969Z,92.38
2023-02-25T02:39:02.946Z,92.57
2023-02-25T02:40:02.943Z,92.47
2023-02-25T02:41:02.931Z,92.76
2023-02-25T02:42:02.922Z,93.04
2023-02-25T02:43:02.922Z,92.85
2023-02-25T02:44:02.903Z,93.04
2023-02-25T02:45:02.890Z,93.23
2023-02-25T02:46:02.922Z,92.47
2023-02-25T02:47:02.868Z,92.57
2023-02-25T02:48:02.882Z,92.18
2023-02-25T02:49:02.851Z,92.47
2023-02-25T02:50:02.864Z,92.18
2023-02-25T02:51:02.845Z,92.28
2023-02-25T02:52:02.828Z,91.71
2023-02-25T02:53:02.824Z,91.52
2023-02-25T02:54:02.819Z,91.71
2023-02-25T02:55:02.798Z,91.52
2023-02-25T02:56:02.828Z,91.90
2023-02-25T02:57:02.791Z,91.61
2023-02-25T02:58:02.778Z,91.90
2023-02-25T02:59:02.784Z,91.33
2023-02-25T03:00:02.770Z,91.71
2023-02-25T03:01:02.778Z,91.80
2023-02-25T03:02:02.749Z,91.33
2023-02-25T03:03:02.751Z,91.71
2023-02-25T03:04:02.815Z,91.80
2023-02-25T03:05:02.752Z,91.71
2023-02-25T03:06:02.718Z,91.80
2023-02-25T03:07:02.721Z,91.52
2023-02-25T03:08:02.699Z,91.14
2023-02-25T03:09:02.697Z,91.80
2023-02-25T03:10:02.705Z,91.42
2023-02-25T03:11:02.669Z,91.61
2023-02-25T03:12:02.666Z,91.61
2023-02-25T03:13:02.698Z,91.61
2023-02-25T03:14:02.653Z,91.90
2023-02-25T03:15:02.638Z,91.90
2023-02-25T03:16:02.627Z,91.80
2023-02-25T03:17:02.673Z,91.99
2023-02-25T03:18:02.615Z,92.38
2023-02-25T03:19:02.604Z,91.61
2023-02-25T03:20:02.591Z,92.38
2023-02-25T03:21:02.595Z,92.09
2023-02-25T03:22:02.599Z,91.99
2023-02-25T03:23:02.565Z,91.71
2023-02-25T03:24:02.566Z,91.80
2023-02-25T03:25:02.640Z,91.80
2023-02-25T03:26:02.549Z,92.28
2023-02-25T03:27:02.557Z,92.28
2023-02-25T03:28:02.552Z,91.99
2023-02-25T03:29:02.521Z,92.09
2023-02-25T03:30:02.509Z,91.90
2023-02-25T03:31:02.556Z,91.61
2023-02-25T03:32:02.659Z,92.47
2023-02-25T03:33:02.490Z,91.99
2023-02-25T03:34:02.479Z,92.18
2023-02-25T03:35:02.501Z,92.14
2023-02-25T03:36:02.500Z,91.95
2023-02-25T03:37:02.460Z,92.09
2023-02-25T03:38:02.463Z,91.99
2023-02-25T03:39:02.441Z,91.85
2023-02-25T03:40:02.448Z,92.80
2023-02-25T03:41:02.451Z,92.61
2023-02-25T03:42:02.434Z,92.47
2023-02-25T03:43:02.404Z,92.57
2023-02-25T03:44:02.412Z,92.85
2023-02-25T03:45:02.385Z,92.61
2023-02-25T03:46:02.447Z,92.94
2023-02-25T03:47:02.389Z,93.18
2023-02-25T03:48:02.386Z,93.51
2023-02-25T03:49:02.380Z,93.18
2023-02-25T03:50:02.349Z,93.23
2023-02-25T03:51:02.351Z,93.23
2023-02-25T03:52:02.332Z,93.51
2023-02-25T03:53:02.324Z,92.94
2023-02-25T03:54:02.328Z,92.66
2023-02-25T03:55:02.314Z,91.99
2023-02-25T03:56:02.305Z,92.14
2023-02-25T03:57:02.283Z,92.14
2023-02-25T03:58:02.282Z,92.04
2023-02-25T03:59:02.267Z,92.18
2023-02-25T04:00:02.269Z,92.09
2023-02-25T04:01:02.265Z,92.23
2023-02-25T04:02:02.273Z,91.76
2023-02-25T04:03:02.233Z,91.76
2023-02-25T04:04:02.230Z,91.47
2023-02-25T04:05:02.207Z,92.14
2023-02-25T04:06:02.210Z,92.23
2023-02-25T04:07:02.192Z,92.18
2023-02-25T04:08:02.191Z,92.38
2023-02-25T04:09:02.168Z,92.57
2023-02-25T04:10:02.174Z,92.04
2023-02-25T04:11:02.159Z,91.90
2023-02-25T04:12:02.171Z,91.47
2023-02-25T04:13:02.166Z,91.80
2023-02-25T04:14:02.168Z,91.66
2023-02-25T04:15:02.123Z,91.76
2023-02-25T04:16:02.207Z,91.52
2023-02-25T04:17:02.104Z,91.66
2023-02-25T04:18:02.098Z,91.61
2023-02-25T04:19:02.083Z,91.80
2023-02-25T04:20:02.109Z,91.71
2023-02-25T04:21:02.090Z,91.99
2023-02-25T04:22:02.071Z,91.47
2023-02-25T04:23:02.047Z,91.71
2023-02-25T04:24:02.051Z,91.76
2023-02-25T04:25:02.068Z,91.90
2023-02-25T04:26:02.067Z,91.28
2023-02-25T04:27:02.032Z,91.47
2023-02-25T04:28:02.025Z,91.47
2023-02-25T04:29:02.005Z,91.52
2023-02-25T04:30:02.010Z,91.57
2023-02-25T04:31:02.157Z,91.42
2023-02-25T04:32:02.182Z,91.76
2023-02-25T04:33:01.973Z,91.71
2023-02-25T04:34:01.974Z,91.52
2023-02-25T04:35:01.952Z,91.66
2023-02-25T04:36:01.947Z,91.57
2023-02-25T04:37:01.936Z,91.76
2023-02-25T04:38:01.985Z,91.76
2023-02-25T04:39:01.929Z,91.95
2023-02-25T04:40:01.923Z,92.80
2023-02-25T04:41:01.921Z,92.14
2023-02-25T04:42:01.891Z,92.23
2023-02-25T04:43:01.895Z,92.52
2023-02-25T04:44:01.888Z,91.95
2023-02-25T04:45:01.867Z,92.99
2023-02-25T04:46:01.878Z,92.99
2023-02-25T04:47:01.865Z,92.90
2023-02-25T04:48:01.846Z,92.99
2023-02-25T04:49:01.848Z,92.90
2023-02-25T04:50:01.860Z,93.08
2023-02-25T04:51:01.812Z,92.99
2023-02-25T04:52:01.813Z,92.80
2023-02-25T04:53:01.804Z,92.99
2023-02-25T04:54:01.798Z,92.90
2023-02-25T04:55:01.801Z,92.80
2023-02-25T04:56:01.774Z,92.33
2023-02-25T04:57:01.770Z,92.33
2023-02-25T04:58:01.783Z,92.42
2023-02-25T04:59:01.785Z,92.14
2023-02-25T05:00:01.743Z,92.42
2023-02-25T05:01:01.731Z,92.14
2023-02-25T05:02:01.787Z,92.99
2023-02-25T05:03:01.706Z,92.71
2023-02-25T05:04:01.704Z,93.27
2023-02-25T05:05:01.800Z,92.80
2023-02-25T05:06:01.717Z,92.90
2023-02-25T05:07:01.717Z,92.99
2023-02-25T05:08:01.664Z,91.95
2023-02-25T05:09:01.668Z,92.42
2023-02-25T05:10:01.646Z,92.14
2023-02-25T05:11:01.656Z,92.23
2023-02-25T05:12:01.640Z,92.99
2023-02-25T05:13:01.626Z,92.61
2023-02-25T05:14:01.626Z,93.18
2023-02-25T05:15:01.611Z,93.18
2023-02-25T05:16:01.624Z,92.61
2023-02-25T05:17:01.599Z,92.61
2023-02-25T05:18:01.582Z,92.99
2023-02-25T05:19:01.598Z,92.23
2023-02-25T05:20:01.610Z,92.42
2023-02-25T05:21:01.555Z,91.85
2023-02-25T05:22:01.558Z,92.33
2023-02-25T05:23:01.540Z,92.23
2023-02-25T05:24:01.528Z,92.61
2023-02-25T05:25:01.538Z,92.42
2023-02-25T05:26:01.539Z,92.42
2023-02-25T05:27:01.505Z,92.23
2023-02-25T05:28:01.513Z,92.14
2023-02-25T05:29:01.490Z,92.14
2023-02-25T05:30:01.539Z,92.14
2023-02-25T05:31:01.583Z,91.47
2023-02-25T05:32:01.705Z,91.57
2023-02-25T05:33:01.527Z,91.57
2023-02-25T05:34:01.476Z,91.76
2023-02-25T05:35:01.429Z,91.57
2023-02-25T05:36:01.425Z,92.14
2023-02-25T05:37:01.425Z,92.42
2023-02-25T05:38:01.408Z,91.85
2023-02-25T05:39:01.398Z,92.04
2023-02-25T05:40:01.409Z,92.04
2023-02-25T05:41:01.395Z,92.42
2023-02-25T05:42:01.372Z,92.61
2023-02-25T05:43:01.365Z,92.42
2023-02-25T05:44:01.355Z,92.42
2023-02-25T05:45:01.365Z,92.14
2023-02-25T05:46:01.350Z,92.14
2023-02-25T05:47:01.449Z,92.42
2023-02-25T05:48:01.319Z,92.33
2023-02-25T05:49:01.323Z,92.61
2023-02-25T05:50:01.303Z,92.42
2023-02-25T05:51:01.312Z,92.33
2023-02-25T05:52:01.284Z,92.33
2023-02-25T05:53:01.305Z,92.42
2023-02-25T05:54:01.266Z,91.85
2023-02-25T05:55:01.264Z,93.18
2023-02-25T05:56:01.244Z,92.99
2023-02-25T05:57:01.232Z,92.71
2023-02-25T05:58:01.230Z,92.99
2023-02-25T05:59:01.224Z,92.80
2023-02-25T06:00:01.233Z,92.61
2023-02-25T06:01:01.197Z,92.99
2023-02-25T06:02:01.250Z,92.99
2023-02-25T06:03:01.231Z,92.80
2023-02-25T06:04:01.196Z,93.27
2023-02-25T06:05:01.178Z,93.18
2023-02-25T06:06:01.166Z,93.18
2023-02-25T06:07:01.162Z,93.18
2023-02-25T06:08:01.132Z,93.37
2023-02-25T06:09:01.137Z,93.18
2023-02-25T06:10:01.150Z,93.27
2023-02-25T06:11:01.116Z,92.80
2023-02-25T06:12:01.121Z,93.27
2023-02-25T06:13:01.104Z,93.08
2023-02-25T06:14:01.079Z,93.18
2023-02-25T06:15:01.099Z,93.08
2023-02-25T06:16:01.095Z,93.08
2023-02-25T06:17:01.059Z,93.18
2023-02-25T06:18:01.052Z,92.99
2023-02-25T06:19:01.240Z,93.18
2023-02-25T06:20:01.086Z,93.37
2023-02-25T06:21:01.020Z,93.18
2023-02-25T06:22:01.012Z,92.99
2023-02-25T06:23:01.006Z,92.99
2023-02-25T06:24:01.033Z,93.27
2023-02-25T06:25:00.987Z,92.90
2023-02-25T06:26:01.002Z,92.99
2023-02-25T06:27:00.962Z,93.18
2023-02-25T06:28:00.957Z,93.27
2023-02-25T06:29:00.952Z,93.08
2023-02-25T06:30:00.952Z,92.99
2023-02-25T06:31:01.013Z,93.18
2023-02-25T06:32:01.035Z,93.08
2023-02-25T06:33:00.917Z,92.99
2023-02-25T06:34:00.916Z,92.90
2023-02-25T06:35:00.898Z,92.80
2023-02-25T06:36:00.890Z,92.23
2023-02-25T06:37:00.884Z,91.95
2023-02-25T06:38:00.871Z,92.99
2023-02-25T06:39:00.885Z,92.80
2023-02-25T06:40:00.853Z,92.99
2023-02-25T06:41:00.852Z,92.71
2023-02-25T06:42:00.838Z,93.18
2023-02-25T06:43:00.830Z,93.18
2023-02-25T06:44:00.833Z,92.61
2023-02-25T06:45:00.853Z,92.61
2023-02-25T06:46:00.844Z,92.80
2023-02-25T06:47:00.818Z,92.61
2023-02-25T06:48:00.804Z,93.27
2023-02-25T06:49:00.780Z,92.80
2023-02-25T06:50:02.564Z,92.80
2023-02-25T06:51:00.767Z,92.99
2023-02-25T06:52:00.742Z,93.46
2023-02-25T06:53:00.744Z,92.90
2023-02-25T06:54:00.729Z,92.71
2023-02-25T06:55:00.719Z,92.94
2023-02-25T06:56:00.721Z,93.13
2023-02-25T06:57:00.710Z,93.18
2023-02-25T06:58:00.718Z,93.13
2023-02-25T06:59:00.709Z,93.08
2023-02-25T07:00:00.732Z,93.51
2023-02-25T07:01:00.783Z,93.51
2023-02-25T07:02:00.660Z,93.32
2023-02-25T07:03:00.644Z,93.42
2023-02-25T07:04:00.755Z,92.94
2023-02-25T07:05:00.630Z,93.13
2023-02-25T07:06:00.626Z,92.94
2023-02-25T07:07:00.622Z,93.04
2023-02-25T07:08:00.625Z,93.51
2023-02-25T07:09:00.633Z,93.51
2023-02-25T07:10:00.612Z,93.42
2023-02-25T07:11:00.571Z,93.42
2023-02-25T07:12:00.564Z,93.65
2023-02-25T07:13:00.558Z,93.80
2023-02-25T07:14:00.585Z,93.84
2023-02-25T07:15:00.534Z,94.18
2023-02-25T07:16:00.632Z,93.32
2023-02-25T07:17:00.531Z,93.51
2023-02-25T07:18:00.532Z,93.18
2023-02-25T07:19:00.495Z,93.04
2023-02-25T07:20:00.499Z,93.13
2023-02-25T07:21:00.480Z,92.94
2023-02-25T07:22:00.469Z,92.85
2023-02-25T07:23:00.498Z,93.42
2023-02-25T07:24:00.472Z,93.32
2023-02-25T07:25:00.473Z,92.94
2023-02-25T07:26:00.441Z,93.13
2023-02-25T07:27:00.448Z,92.94
2023-02-25T07:28:00.442Z,92.94
2023-02-25T07:29:00.415Z,93.42
2023-02-25T07:30:00.394Z,93.42
2023-02-25T07:31:00.479Z,93.80
2023-02-25T07:32:00.762Z,93.80
2023-02-25T07:33:00.455Z,93.99
2023-02-25T07:34:00.358Z,93.89
2023-02-25T07:35:00.361Z,93.70
2023-02-25T07:36:00.416Z,93.99
2023-02-25T07:37:00.344Z,93.32
2023-02-25T07:38:00.342Z,93.08
2023-02-25T07:39:00.333Z,92.85
2023-02-25T07:40:00.323Z,92.94
2023-02-25T07:41:00.313Z,93.42
2023-02-25T07:42:00.296Z,92.76
2023-02-25T07:43:00.294Z,93.04
2023-02-25T07:44:00.282Z,93.61
2023-02-25T07:45:02.139Z,93.70
2023-02-25T07:46:00.339Z,93.80
2023-02-25T07:47:00.270Z,93.42
2023-02-25T07:48:00.248Z,94.08
2023-02-25T07:49:00.356Z,93.51
2023-02-25T07:50:00.217Z,92.94
2023-02-25T07:51:00.223Z,93.42
2023-02-25T07:52:00.208Z,93.80
2023-02-25T07:53:00.206Z,93.51
2023-02-25T07:54:00.194Z,93.51
2023-02-25T07:55:00.177Z,93.42
2023-02-25T07:56:00.198Z,93.70
2023-02-25T07:57:00.159Z,93.42
2023-02-25T07:58:00.164Z,93.80
2023-02-25T07:59:00.168Z,93.89
2023-02-25T08:00:00.158Z,93.80
2023-02-25T08:01:00.146Z,93.51
2023-02-25T08:02:00.140Z,93.13
2023-02-25T08:03:00.118Z,93.65
2023-02-25T08:04:00.220Z,92.99
2023-02-25T08:05:00.108Z,93.65
2023-02-25T08:06:00.089Z,93.65
2023-02-25T08:07:00.084Z,93.56
2023-02-25T08:08:00.075Z,93.08
2023-02-25T08:09:00.086Z,93.04
2023-02-25T08:10:00.064Z,92.90
2023-02-25T08:11:00.061Z,93.04
2023-02-25T08:12:00.084Z,93.04
2023-02-25T08:13:00.038Z,93.04
2023-02-25T08:14:00.063Z,92.85
2023-02-25T08:15:00.028Z,92.94
2023-02-25T08:16:00.041Z,93.56
2023-02-25T08:16:59.986Z,93.08
2023-02-25T08:17:59.970Z,92.99
2023-02-25T08:18:59.977Z,92.99
2023-02-25T08:19:59.958Z,92.94
2023-02-25T08:21:01.984Z,92.66
2023-02-25T08:21:59.972Z,92.57
2023-02-25T08:23:00.026Z,92.71
2023-02-25T08:23:59.928Z,93.04
2023-02-25T08:24:59.923Z,92.66
2023-02-25T08:25:59.920Z,93.18
2023-02-25T08:26:59.912Z,92.99
2023-02-25T08:27:59.919Z,93.37
2023-02-25T08:28:59.902Z,92.71
2023-02-25T08:29:59.871Z,92.23
2023-02-25T08:30:59.991Z,92.52
2023-02-25T08:32:00.078Z,92.33
2023-02-25T08:32:59.949Z,92.61
2023-02-25T08:33:59.849Z,92.04
2023-02-25T08:34:59.885Z,92.23
2023-02-25T08:35:59.858Z,91.76
2023-02-25T08:36:59.845Z,92.33
2023-02-25T08:37:59.797Z,91.85
2023-02-25T08:38:59.797Z,92.33
2023-02-25T08:39:59.792Z,92.42
2023-02-25T08:40:59.814Z,92.42
2023-02-25T08:41:59.802Z,92.04
2023-02-25T08:42:59.762Z,92.14
2023-02-25T08:43:59.768Z,91.95
2023-02-25T08:44:59.754Z,91.47
2023-02-25T08:46:01.192Z,91.95
2023-02-25T08:46:59.800Z,91.76
2023-02-25T08:47:59.730Z,91.47
2023-02-25T08:48:59.746Z,91.57
2023-02-25T08:49:59.714Z,91.47
2023-02-25T08:50:59.682Z,91.85
2023-02-25T08:51:59.675Z,91.85
2023-02-25T08:52:59.669Z,91.85
2023-02-25T08:53:59.719Z,91.28
2023-02-25T08:54:59.653Z,91.28
2023-02-25T08:55:59.635Z,91.57
2023-02-25T08:56:59.664Z,91.85
2023-02-25T08:57:59.621Z,91.66
2023-02-25T08:58:59.621Z,91.38
2023-02-25T08:59:59.601Z,91.76
2023-02-25T09:00:59.670Z,91.57
2023-02-25T09:01:59.584Z,91.66
2023-02-25T09:02:59.578Z,91.57
2023-02-25T09:03:59.656Z,91.66
2023-02-25T09:04:59.559Z,91.57
2023-02-25T09:05:59.550Z,91.76
2023-02-25T09:06:59.536Z,91.38
2023-02-25T09:07:59.539Z,91.85
2023-02-25T09:08:59.543Z,91.76
2023-02-25T09:09:59.544Z,91.85
2023-02-25T09:10:59.503Z,91.66
2023-02-25T09:11:59.508Z,91.85
2023-02-25T09:12:59.484Z,91.38
2023-02-25T09:13:59.490Z,91.76
2023-02-25T09:14:59.487Z,91.47
2023-02-25T09:15:59.463Z,91.76
2023-02-25T09:16:59.468Z,91.28
2023-02-25T09:17:59.440Z,91.76
2023-02-25T09:18:59.441Z,91.85
2023-02-25T09:19:59.442Z,91.95
2023-02-25T09:20:59.455Z,91.66
2023-02-25T09:21:59.486Z,91.47
2023-02-25T09:22:59.405Z,91.47
2023-02-25T09:23:59.431Z,91.38
2023-02-25T09:24:59.383Z,91.28
2023-02-25T09:25:59.378Z,91.19
2023-02-25T09:26:59.390Z,91.76
2023-02-25T09:27:59.366Z,91.38
2023-02-25T09:28:59.345Z,91.57
2023-02-25T09:29:59.350Z,91.66
2023-02-25T09:30:59.438Z,90.81
2023-02-25T09:31:59.419Z,90.81
2023-02-25T09:32:59.461Z,90.53
2023-02-25T09:33:59.314Z,90.43
2023-02-25T09:35:01.354Z,90.62
2023-02-25T09:35:59.305Z,90.43
2023-02-25T09:36:59.282Z,90.62
2023-02-25T09:37:59.300Z,89.96
2023-02-25T09:38:59.262Z,89.77
2023-02-25T09:39:59.269Z,89.20
2023-02-25T09:40:59.256Z,89.39
2023-02-25T09:41:59.234Z,89.39
2023-02-25T09:42:59.234Z,89.29
2023-02-25T09:43:59.236Z,89.11
2023-02-25T09:44:59.221Z,89.67
2023-02-25T09:45:59.290Z,90.15
2023-02-25T09:46:59.200Z,89.96
2023-02-25T09:47:59.257Z,89.86
2023-02-25T09:48:59.180Z,89.39
2023-02-25T09:49:59.176Z,89.39
2023-02-25T09:50:59.164Z,88.73
2023-02-25T09:51:59.167Z,89.58
2023-02-25T09:52:59.162Z,88.92
2023-02-25T09:53:59.155Z,88.82
2023-02-25T09:54:59.170Z,88.82
2023-02-25T09:55:59.124Z,88.77
2023-02-25T09:56:59.117Z,88.92
2023-02-25T09:57:59.120Z,89.62
2023-02-25T09:58:59.097Z,88.54
2023-02-25T09:59:59.094Z,88.63
2023-02-25T10:00:59.102Z,88.63
2023-02-25T10:01:59.110Z,89.20
2023-02-25T10:02:59.176Z,89.15
2023-02-25T10:03:59.161Z,89.06
2023-02-25T10:04:59.077Z,89.25
2023-02-25T10:05:59.057Z,89.01
2023-02-25T10:06:59.046Z,89.43
2023-02-25T10:07:59.051Z,89.15
2023-02-25T10:08:59.017Z,89.15
2023-02-25T10:09:59.027Z,89.34
2023-02-25T10:10:59.035Z,89.62
2023-02-25T10:11:59.004Z,89.15
2023-02-25T10:12:58.988Z,88.96
2023-02-25T10:13:59.000Z,89.34
2023-02-25T10:14:59.000Z,88.87
2023-02-25T10:16:06.212Z,88.48
2023-02-25T10:16:59.025Z,87.92
2023-02-25T10:17:58.959Z,88.20
2023-02-25T10:18:58.975Z,88.58
2023-02-25T10:19:58.966Z,89.11
2023-02-25T10:20:58.946Z,88.92
2023-02-25T10:21:58.939Z,88.54
2023-02-25T10:22:58.940Z,89.11
2023-02-25T10:23:58.995Z,89.20
2023-02-25T10:24:58.941Z,88.82
2023-02-25T10:25:58.906Z,88.82
2023-02-25T10:26:58.878Z,89.01
2023-02-25T10:27:58.872Z,88.73
2023-02-25T10:28:58.886Z,89.29
2023-02-25T10:29:58.857Z,89.39
2023-02-25T10:30:58.949Z,89.01
2023-02-25T10:31:59.107Z,89.11
2023-02-25T10:32:58.868Z,89.29
2023-02-25T10:33:58.871Z,89.58
2023-02-25T10:34:58.814Z,89.58
2023-02-25T10:35:58.811Z,89.67
2023-02-25T10:36:58.791Z,89.86
2023-02-25T10:37:58.825Z,90.24
2023-02-25T10:38:58.780Z,90.43
2023-02-25T10:39:58.796Z,89.96
2023-02-25T10:40:58.768Z,90.15
2023-02-25T10:41:58.774Z,90.43
2023-02-25T10:42:58.736Z,90.91
2023-02-25T10:43:58.791Z,90.53
2023-02-25T10:44:58.718Z,90.91
2023-02-25T10:45:58.734Z,91.19
2023-02-25T10:46:58.706Z,91.00
2023-02-25T10:47:58.695Z,91.09
2023-02-25T10:48:58.733Z,91.19
2023-02-25T10:49:58.673Z,90.62
2023-02-25T10:50:58.672Z,90.91
2023-02-25T10:51:58.705Z,91.00
2023-02-25T10:52:58.660Z,90.81
2023-02-25T10:53:58.669Z,90.62
2023-02-25T10:54:58.651Z,90.72
2023-02-25T10:55:58.683Z,90.62
2023-02-25T10:56:58.632Z,91.09
2023-02-25T10:57:58.625Z,90.62
2023-02-25T10:58:58.596Z,90.05
2023-02-25T10:59:58.598Z,90.24
2023-02-25T11:00:58.600Z,90.43
2023-02-25T11:01:58.668Z,90.24
2023-02-25T11:02:58.623Z,89.39
2023-02-25T11:03:58.570Z,90.15
2023-02-25T11:04:58.560Z,89.96
2023-02-25T11:05:58.555Z,90.19
2023-02-25T11:06:58.540Z,90.19
2023-02-25T11:07:58.554Z,89.91
2023-02-25T11:08:58.584Z,90.19
2023-02-25T11:09:58.524Z,90.29
2023-02-25T11:10:58.504Z,89.53
2023-02-25T11:11:58.529Z,89.81
2023-02-25T11:12:58.523Z,90.00
2023-02-25T11:13:58.485Z,89.81
2023-02-25T11:14:58.483Z,90.29
2023-02-25T11:15:58.502Z,89.15
2023-02-25T11:16:58.492Z,88.96
2023-02-25T11:17:58.472Z,89.06
2023-02-25T11:18:58.485Z,88.77
2023-02-25T11:19:58.434Z,88.35
2023-02-25T11:20:58.429Z,89.11
2023-02-25T11:21:58.452Z,89.29
2023-02-25T11:22:58.426Z,89.29
2023-02-25T11:23:58.445Z,88.54
2023-02-25T11:24:58.392Z,88.73
2023-02-25T11:25:58.389Z,89.01
2023-02-25T11:26:58.381Z,89.20
2023-02-25T11:27:58.384Z,88.92
2023-02-25T11:28:58.370Z,89.39
2023-02-25T11:29:58.389Z,89.96
2023-02-25T11:30:58.483Z,89.67
2023-02-25T11:31:58.391Z,89.58
2023-02-25T11:32:58.417Z,89.58
2023-02-25T11:33:58.327Z,89.86
2023-02-25T11:34:58.322Z,90.15
2023-02-25T11:35:58.321Z,89.86
2023-02-25T11:36:58.304Z,90.43
2023-02-25T11:37:58.302Z,91.09
2023-02-25T11:38:58.284Z,90.72
2023-02-25T11:39:58.287Z,90.43
2023-02-25T11:40:58.295Z,90.05
2023-02-25T11:41:58.273Z,89.77
2023-02-25T11:42:58.247Z,89.11
2023-02-25T11:43:59.429Z,89.67
2023-02-25T11:44:58.233Z,89.86
2023-02-25T11:45:58.231Z,89.48
2023-02-25T11:46:58.221Z,89.77
2023-02-25T11:47:58.214Z,89.48
2023-02-25T11:48:58.236Z,90.05
2023-02-25T11:49:58.207Z,90.05
2023-02-25T11:50:58.232Z,90.05
2023-02-25T11:51:58.199Z,90.05
2023-02-25T11:52:58.182Z,90.05
2023-02-25T11:53:58.191Z,89.77
2023-02-25T11:54:58.190Z,89.96
2023-02-25T11:55:58.169Z,89.58
2023-02-25T11:56:58.139Z,89.20
2023-02-25T11:57:58.156Z,88.73
2023-02-25T11:58:58.167Z,89.20
2023-02-25T11:59:58.179Z,88.73
2023-02-25T12:00:58.108Z,89.20
2023-02-25T12:01:58.120Z,89.20
2023-02-25T12:02:58.140Z,89.06
2023-02-25T12:03:59.274Z,88.25
2023-02-25T12:04:58.108Z,88.25
2023-02-25T12:05:58.096Z,88.48
2023-02-25T12:06:58.079Z,87.40
2023-02-25T12:08:14.372Z,87.59
2023-02-25T12:10:02.071Z,87.25
2023-02-25T12:11:02.032Z,87.59
2023-02-25T12:13:06.064Z,87.16
2023-02-25T12:14:06.015Z,86.74
2023-02-25T12:15:59.190Z,87.12
2023-02-25T12:16:59.095Z,87.21
2023-02-25T12:18:52.037Z,87.40
2023-02-25T12:19:52.008Z,87.97
2023-02-25T12:21:45.104Z,88.25
2023-02-25T12:22:45.109Z,89.20
2023-02-25T12:24:49.126Z,89.01
2023-02-25T12:25:49.084Z,89.39
2023-02-25T12:27:53.079Z,89.48
2023-02-25T12:28:53.062Z,89.58
2023-02-25T12:29:53.050Z,89.29
2023-02-25T12:30:53.171Z,89.01
2023-02-25T12:31:53.173Z,89.39
2023-02-25T12:32:53.030Z,89.39
2023-02-25T12:33:53.025Z,89.39
2023-02-25T12:34:53.043Z,89.77
2023-02-25T12:35:53.011Z,89.67
2023-02-25T12:36:52.996Z,89.20
2023-02-25T12:37:53.001Z,89.11
2023-02-25T12:38:52.987Z,88.44
2023-02-25T12:39:52.971Z,89.29
2023-02-25T12:40:52.982Z,89.39
2023-02-25T12:41:54.639Z,89.11
2023-02-25T12:42:52.945Z,89.20
2023-02-25T12:43:52.936Z,89.39
2023-02-25T12:44:52.953Z,88.63
2023-02-25T12:45:53.023Z,88.92
2023-02-25T12:46:52.929Z,88.82
2023-02-25T12:47:52.908Z,88.82
2023-02-25T12:48:52.897Z,88.92
2023-02-25T12:49:52.892Z,88.54
2023-02-25T12:50:52.891Z,88.25
2023-02-25T12:51:52.882Z,88.82
2023-02-25T12:52:52.866Z,89.39
2023-02-25T12:53:52.862Z,89.39
2023-02-25T12:54:52.866Z,89.11
2023-02-25T12:55:52.899Z,89.48
2023-02-25T12:56:52.845Z,88.16
2023-02-25T12:57:52.843Z,88.63
2023-02-25T12:58:52.838Z,89.29
2023-02-25T12:59:52.806Z,88.44
2023-02-25T13:00:52.821Z,89.58
2023-02-25T13:01:52.797Z,89.29